»·PEaware :: FJS1399 KAWO-KPDX

FJS1399 :: KAWO-KPDX

FLIGHT INFORMATION

Flight Status: Arrived
Operator: Unknown
More flights by this operator :: More flights under this callsign
Pilot: David C. (16084)
Aircraft: BOMBARDIER BD-100 CHALLENGER 300
(CL30)
More flights by this aircraft type
Origin: KAWO Arlington Mun
United States
Destination: KPDX Portland Intl
United States
More flights between these airports :: More routes between these airports
Route: BUWZO KRATR2
File this flight plan on PilotEdge
Remarks:
Altitude:
(Current/Filed)
22,000ft
Speed:
(Current/Filed)
423kts
Departed: 13-Jul-18 02:11 PM
Arrived: 13-Jul-18 02:45 PM
Distance/Time
Traveled:
155nm/0:34
Distance/Time
To Go:
Arrived

Flight Plot

Page will automatically refresh every two minutes.

Flight plan parsing failed; only flown route is shown


Map Options




Map Legend


Flown Route
Filed Route
Departure Airport
Arrival Airport
Navaid (VOR, NDB)
Fix

Horizontal Profiles

Position Reports

Time Latitude Longitude Heading Altitude Ground
Speed
13-Jul-18 13:45 48.160064 -122.152730 270 147ft 0kts
13-Jul-18 13:46 48.160064 -122.152730 270 147ft 0kts
13-Jul-18 13:47 48.160064 -122.152730 270 147ft 0kts
13-Jul-18 13:48 48.160064 -122.152730 270 147ft 0kts
13-Jul-18 13:49 48.160064 -122.152730 270 147ft 0kts
13-Jul-18 13:50 48.160064 -122.152730 270 147ft 0kts
13-Jul-18 13:51 48.160064 -122.152730 270 147ft 0kts
13-Jul-18 13:52 48.160064 -122.152730 270 147ft 0kts
13-Jul-18 13:53 48.160064 -122.152730 270 147ft 0kts
13-Jul-18 13:54 48.160064 -122.152730 270 147ft 0kts
13-Jul-18 13:55 48.160064 -122.152730 270 147ft 0kts
13-Jul-18 13:56 48.160064 -122.152730 270 147ft 0kts
13-Jul-18 13:57 48.160064 -122.152730 270 147ft 0kts
13-Jul-18 13:58 48.160064 -122.152730 270 147ft 0kts
13-Jul-18 13:59 48.160064 -122.152730 270 147ft 0kts
13-Jul-18 14:00 48.160064 -122.152730 270 147ft 0kts
13-Jul-18 14:01 48.160064 -122.152730 270 147ft 0kts
13-Jul-18 14:02 48.160064 -122.152730 270 147ft 0kts
13-Jul-18 14:03 48.160064 -122.152730 270 147ft 0kts
13-Jul-18 14:04 48.160064 -122.152730 270 147ft 0kts
13-Jul-18 14:05 48.160064 -122.152730 270 147ft 0kts
13-Jul-18 14:06 48.160098 -122.153069 293 148ft 4kts
13-Jul-18 14:07 48.158124 -122.154210 178 148ft 15kts
13-Jul-18 14:08 48.155535 -122.154901 270 148ft 0kts
13-Jul-18 14:09 48.155535 -122.154901 270 148ft 0kts
13-Jul-18 14:10 48.155535 -122.154901 270 148ft 0kts
13-Jul-18 14:11 48.155533 -122.155495 269 148ft 6kts
13-Jul-18 14:12 48.178306 -122.156740 357 1078ft 204kts
13-Jul-18 14:13 48.201803 -122.218523 282 4432ft 208kts
13-Jul-18 14:14 48.166339 -122.273840 194 7990ft 239kts
13-Jul-18 14:15 48.100433 -122.291000 194 11502ft 246kts
13-Jul-18 14:16 48.032349 -122.306788 194 14912ft 257kts
13-Jul-18 14:17 47.954919 -122.324395 194 15064ft 293kts
13-Jul-18 14:18 47.873949 -122.339098 185 18028ft 308kts
13-Jul-18 14:19 47.792044 -122.336501 185 20853ft 332kts
13-Jul-18 14:20 47.689630 -122.333347 184 22142ft 420kts
13-Jul-18 14:21 47.571069 -122.329346 184 22122ft 426kts
13-Jul-18 14:22 47.453033 -122.325492 184 22124ft 425kts
13-Jul-18 14:23 47.334929 -122.321687 184 22128ft 426kts
13-Jul-18 14:24 47.216921 -122.317910 184 22128ft 426kts
13-Jul-18 14:25 47.098520 -122.314137 184 22127ft 426kts
13-Jul-18 14:26 46.980399 -122.310445 183 22129ft 427kts
13-Jul-18 14:27 46.863083 -122.309656 183 22136ft 428kts
13-Jul-18 14:28 46.744497 -122.309527 183 22136ft 428kts
13-Jul-18 14:29 46.627250 -122.309465 183 21778ft 406kts
13-Jul-18 14:30 46.516187 -122.309489 183 19657ft 394kts
13-Jul-18 14:31 46.409036 -122.309492 183 17577ft 381kts
13-Jul-18 14:32 46.305457 -122.309490 183 15553ft 365kts
13-Jul-18 14:33 46.210607 -122.338349 202 13651ft 341kts
13-Jul-18 14:34 46.124536 -122.384266 203 11909ft 321kts
13-Jul-18 14:35 46.043519 -122.427907 203 10256ft 302kts
13-Jul-18 14:36 45.974686 -122.464839 203 8840ft 285kts
13-Jul-18 14:37 45.902074 -122.474509 171 7369ft 275kts
13-Jul-18 14:38 45.829016 -122.454081 170 6008ft 268kts
13-Jul-18 14:39 45.760789 -122.433456 170 5971ft 244kts
13-Jul-18 14:40 45.696146 -122.419842 186 6489ft 229kts
13-Jul-18 14:41 45.636432 -122.423399 179 4873ft 208kts
13-Jul-18 14:42 45.580622 -122.422564 193 2985ft 195kts
13-Jul-18 14:43 45.551743 -122.468427 260 1698ft 134kts
13-Jul-18 14:44 45.563823 -122.516578 299 881ft 130kts
13-Jul-18 14:45 45.581304 -122.561056 298 152ft 124kts
13-Jul-18 14:46 45.592052 -122.590071 277 36ft 25kts
13-Jul-18 14:47 45.592062 -122.591402 242 36ft 0kts
13-Jul-18 14:48 45.589631 -122.585570 119 36ft 26kts
13-Jul-18 14:49 45.587417 -122.584181 298 36ft 0kts
13-Jul-18 14:50 45.587417 -122.584181 298 36ft 0kts

Navigation Log

Ident Type
Flight plan parsing failed, navigation log unavailable